Maples, Missouri
Current Conditions -  °F | °C
As of 1:58 AM on Saturday 20 Dec 2014 (Local Time) from KTBN Reporting Station
Haze Haze  
Wind Chill:   Ceiling: 400
Heat Index:   Visibility: 6mi
Dew Point:   Wind: 3mph
Humidity: 100%   Direction: 160°SSE
Pressure: 30.19"   Gusts: NA
Location:  37.5023°N, 91.4546°W
Report Text: KTBN 200758Z AUTO 16003KT 6SM BR OVC004 02/02 A3019 RMK AO2 SLP235 T00180018
Loading
Personal Weather Stations






























Interactive Weather Map New forecast layout! Learn more

10-Day Weather Forecast

Advertisements
Track Severe Weather on mobile